sensor_id;sensor_type;location;lat;lon;timestamp;temperature;humidity
23769;DHT22;12064;50.890;5.424;2024-01-11T00:01:47;14.20;99.90
23769;DHT22;12064;50.890;5.424;2024-01-11T00:10:39;14.20;99.90
23769;DHT22;12064;50.890;5.424;2024-01-11T00:19:29;14.20;99.90
23769;DHT22;12064;50.890;5.424;2024-01-11T00:28:20;14.20;99.90
23769;DHT22;12064;50.890;5.424;2024-01-11T00:37:11;14.20;99.90
23769;DHT22;12064;50.890;5.424;2024-01-11T00:46:01;14.20;99.90
23769;DHT22;12064;50.890;5.424;2024-01-11T00:54:52;14.10;99.90
23769;DHT22;12064;50.890;5.424;2024-01-11T01:03:43;14.20;99.90
23769;DHT22;12064;50.890;5.424;2024-01-11T01:12:34;14.10;99.90
23769;DHT22;12064;50.890;5.424;2024-01-11T01:21:25;14.10;99.90
23769;DHT22;12064;50.890;5.424;2024-01-11T01:30:16;14.10;99.90
23769;DHT22;12064;50.890;5.424;2024-01-11T01:39:06;14.10;99.90
23769;DHT22;12064;50.890;5.424;2024-01-11T01:47:58;14.00;99.90
23769;DHT22;12064;50.890;5.424;2024-01-11T01:56:48;14.10;99.90
23769;DHT22;12064;50.890;5.424;2024-01-11T02:05:39;14.10;99.90
23769;DHT22;12064;50.890;5.424;2024-01-11T02:14:30;14.00;99.90
23769;DHT22;12064;50.890;5.424;2024-01-11T02:23:22;14.00;99.90
23769;DHT22;12064;50.890;5.424;2024-01-11T02:32:14;14.00;99.90
23769;DHT22;12064;50.890;5.424;2024-01-11T02:41:05;14.10;99.90
23769;DHT22;12064;50.890;5.424;2024-01-11T02:49:57;14.00;99.90
23769;DHT22;12064;50.890;5.424;2024-01-11T02:58:47;14.00;99.90
23769;DHT22;12064;50.890;5.424;2024-01-11T03:07:38;14.00;99.90
23769;DHT22;12064;50.890;5.424;2024-01-11T03:16:30;14.00;99.90
23769;DHT22;12064;50.890;5.424;2024-01-11T03:25:21;14.00;99.90
23769;DHT22;12064;50.890;5.424;2024-01-11T03:34:12;14.00;99.90
23769;DHT22;12064;50.890;5.424;2024-01-11T03:43:05;14.00;99.90
23769;DHT22;12064;50.890;5.424;2024-01-11T03:51:56;14.00;99.90
23769;DHT22;12064;50.890;5.424;2024-01-11T04:00:46;14.00;99.90
23769;DHT22;12064;50.890;5.424;2024-01-11T04:09:38;13.90;99.90
23769;DHT22;12064;50.890;5.424;2024-01-11T04:18:29;13.90;99.90
23769;DHT22;12064;50.890;5.424;2024-01-11T04:27:19;13.90;99.90
23769;DHT22;12064;50.890;5.424;2024-01-11T04:36:10;13.90;99.90
23769;DHT22;12064;50.890;5.424;2024-01-11T04:45:01;13.90;99.90
23769;DHT22;12064;50.890;5.424;2024-01-11T04:53:52;13.90;99.90
23769;DHT22;12064;50.890;5.424;2024-01-11T05:02:44;13.90;99.90
23769;DHT22;12064;50.890;5.424;2024-01-11T05:11:34;13.90;99.90
23769;DHT22;12064;50.890;5.424;2024-01-11T05:20:25;13.90;99.90
23769;DHT22;12064;50.890;5.424;2024-01-11T05:29:15;13.90;99.90
23769;DHT22;12064;50.890;5.424;2024-01-11T05:38:06;13.90;99.90
23769;DHT22;12064;50.890;5.424;2024-01-11T05:46:57;13.90;99.90
23769;DHT22;12064;50.890;5.424;2024-01-11T05:55:48;13.90;99.90
23769;DHT22;12064;50.890;5.424;2024-01-11T06:04:39;13.90;99.90
23769;DHT22;12064;50.890;5.424;2024-01-11T06:13:30;13.90;99.90
23769;DHT22;12064;50.890;5.424;2024-01-11T06:22:21;13.90;99.90
23769;DHT22;12064;50.890;5.424;2024-01-11T06:31:12;13.90;99.90
23769;DHT22;12064;50.890;5.424;2024-01-11T06:40:02;13.90;99.90
23769;DHT22;12064;50.890;5.424;2024-01-11T06:48:54;13.90;99.90
23769;DHT22;12064;50.890;5.424;2024-01-11T06:57:47;13.90;99.90
23769;DHT22;12064;50.890;5.424;2024-01-11T07:06:38;13.90;99.90
23769;DHT22;12064;50.890;5.424;2024-01-11T07:15:29;13.90;99.90
23769;DHT22;12064;50.890;5.424;2024-01-11T07:24:19;13.90;99.90
23769;DHT22;12064;50.890;5.424;2024-01-11T07:33:13;13.90;99.90
23769;DHT22;12064;50.890;5.424;2024-01-11T07:42:04;13.90;99.90
23769;DHT22;12064;50.890;5.424;2024-01-11T07:50:54;13.90;99.90
23769;DHT22;12064;50.890;5.424;2024-01-11T07:59:45;13.90;99.90
23769;DHT22;12064;50.890;5.424;2024-01-11T08:08:36;14.00;99.90
23769;DHT22;12064;50.890;5.424;2024-01-11T08:17:29;14.00;99.90
23769;DHT22;12064;50.890;5.424;2024-01-11T08:26:20;13.90;99.90
23769;DHT22;12064;50.890;5.424;2024-01-11T08:35:11;13.90;99.90
23769;DHT22;12064;50.890;5.424;2024-01-11T08:44:02;13.90;99.90
23769;DHT22;12064;50.890;5.424;2024-01-11T08:52:53;13.90;99.90
23769;DHT22;12064;50.890;5.424;2024-01-11T09:01:45;13.90;99.90
23769;DHT22;12064;50.890;5.424;2024-01-11T09:10:36;13.90;99.90
23769;DHT22;12064;50.890;5.424;2024-01-11T09:19:27;13.90;99.90
23769;DHT22;12064;50.890;5.424;2024-01-11T09:28:17;14.00;99.90
23769;DHT22;12064;50.890;5.424;2024-01-11T09:37:09;14.00;99.80
23769;DHT22;12064;50.890;5.424;2024-01-11T09:46:04;13.90;99.40
23769;DHT22;12064;50.890;5.424;2024-01-11T09:54:55;14.00;99.40
23769;DHT22;12064;50.890;5.424;2024-01-11T10:03:46;14.00;98.70
23769;DHT22;12064;50.890;5.424;2024-01-11T10:12:37;14.00;99.00
23769;DHT22;12064;50.890;5.424;2024-01-11T10:21:28;14.00;98.80
23769;DHT22;12064;50.890;5.424;2024-01-11T10:30:21;14.00;98.30
23769;DHT22;12064;50.890;5.424;2024-01-11T10:39:15;14.00;97.90
23769;DHT22;12064;50.890;5.424;2024-01-11T10:48:16;14.00;97.60
23769;DHT22;12064;50.890;5.424;2024-01-11T10:57:07;13.90;94.40
23769;DHT22;12064;50.890;5.424;2024-01-11T11:05:59;13.70;90.20
23769;DHT22;12064;50.890;5.424;2024-01-11T11:14:51;13.70;86.80
23769;DHT22;12064;50.890;5.424;2024-01-11T11:23:43;13.70;85.10
23769;DHT22;12064;50.890;5.424;2024-01-11T11:32:42;13.70;83.70
23769;DHT22;12064;50.890;5.424;2024-01-11T11:41:33;13.70;81.60
23769;DHT22;12064;50.890;5.424;2024-01-11T11:50:25;13.90;84.50
23769;DHT22;12064;50.890;5.424;2024-01-11T11:59:19;14.00;87.70
23769;DHT22;12064;50.890;5.424;2024-01-11T12:08:10;14.10;90.20
23769;DHT22;12064;50.890;5.424;2024-01-11T12:17:01;14.20;91.90
23769;DHT22;12064;50.890;5.424;2024-01-11T12:25:52;14.20;93.30
23769;DHT22;12064;50.890;5.424;2024-01-11T12:34:44;14.30;93.70
23769;DHT22;12064;50.890;5.424;2024-01-11T12:43:35;14.30;94.10
23769;DHT22;12064;50.890;5.424;2024-01-11T12:52:26;14.40;94.40
23769;DHT22;12064;50.890;5.424;2024-01-11T13:01:20;14.50;94.10
23769;DHT22;12064;50.890;5.424;2024-01-11T13:10:11;14.50;94.70
23769;DHT22;12064;50.890;5.424;2024-01-11T13:19:02;14.50;94.80
23769;DHT22;12064;50.890;5.424;2024-01-11T13:27:52;14.60;95.00
23769;DHT22;12064;50.890;5.424;2024-01-11T13:36:43;14.70;95.00
23769;DHT22;12064;50.890;5.424;2024-01-11T13:45:34;14.70;95.50
23769;DHT22;12064;50.890;5.424;2024-01-11T13:54:27;14.80;95.10
23769;DHT22;12064;50.890;5.424;2024-01-11T14:03:18;14.80;95.30
23769;DHT22;12064;50.890;5.424;2024-01-11T14:12:08;14.80;95.10
23769;DHT22;12064;50.890;5.424;2024-01-11T14:20:59;14.80;95.30
23769;DHT22;12064;50.890;5.424;2024-01-11T14:29:50;14.90;94.90
23769;DHT22;12064;50.890;5.424;2024-01-11T14:38:42;14.90;94.90
23769;DHT22;12064;50.890;5.424;2024-01-11T14:47:33;14.90;94.60
23769;DHT22;12064;50.890;5.424;2024-01-11T14:56:24;15.00;94.60
23769;DHT22;12064;50.890;5.424;2024-01-11T15:05:15;15.00;94.50
23769;DHT22;12064;50.890;5.424;2024-01-11T15:14:09;15.00;94.80
23769;DHT22;12064;50.890;5.424;2024-01-11T15:23:00;15.00;94.80
23769;DHT22;12064;50.890;5.424;2024-01-11T15:31:51;15.00;95.20
23769;DHT22;12064;50.890;5.424;2024-01-11T15:40:41;15.00;95.40
23769;DHT22;12064;50.890;5.424;2024-01-11T15:49:32;15.00;95.40
23769;DHT22;12064;50.890;5.424;2024-01-11T15:58:23;15.00;95.60
23769;DHT22;12064;50.890;5.424;2024-01-11T16:07:14;15.10;95.60
23769;DHT22;12064;50.890;5.424;2024-01-11T16:16:05;15.00;96.20
23769;DHT22;12064;50.890;5.424;2024-01-11T16:24:56;15.10;95.70
23769;DHT22;12064;50.890;5.424;2024-01-11T16:33:50;15.10;94.60
23769;DHT22;12064;50.890;5.424;2024-01-11T16:42:41;15.10;93.80
23769;DHT22;12064;50.890;5.424;2024-01-11T16:51:31;15.10;94.00
23769;DHT22;12064;50.890;5.424;2024-01-11T17:00:22;15.10;94.70
23769;DHT22;12064;50.890;5.424;2024-01-11T17:09:13;15.10;95.20
23769;DHT22;12064;50.890;5.424;2024-01-11T17:18:04;15.00;95.70
23769;DHT22;12064;50.890;5.424;2024-01-11T17:26:55;15.00;96.10
23769;DHT22;12064;50.890;5.424;2024-01-11T17:35:45;15.00;96.30
23769;DHT22;12064;50.890;5.424;2024-01-11T17:44:37;15.10;96.30
23769;DHT22;12064;50.890;5.424;2024-01-11T17:53:29;15.00;96.60
23769;DHT22;12064;50.890;5.424;2024-01-11T18:02:20;15.00;96.70
23769;DHT22;12064;50.890;5.424;2024-01-11T18:11:14;15.10;96.60
23769;DHT22;12064;50.890;5.424;2024-01-11T18:20:09;15.10;96.60
23769;DHT22;12064;50.890;5.424;2024-01-11T18:29:00;15.00;97.40
23769;DHT22;12064;50.890;5.424;2024-01-11T18:37:50;15.00;97.20
23769;DHT22;12064;50.890;5.424;2024-01-11T18:46:42;15.00;97.30
23769;DHT22;12064;50.890;5.424;2024-01-11T18:55:33;15.10;97.00
23769;DHT22;12064;50.890;5.424;2024-01-11T19:04:23;15.10;97.30
23769;DHT22;12064;50.890;5.424;2024-01-11T19:13:14;15.00;97.40
23769;DHT22;12064;50.890;5.424;2024-01-11T19:22:06;15.00;97.50
23769;DHT22;12064;50.890;5.424;2024-01-11T19:30:56;15.10;97.60
23769;DHT22;12064;50.890;5.424;2024-01-11T19:39:47;15.10;97.70
23769;DHT22;12064;50.890;5.424;2024-01-11T19:48:38;15.00;98.00
23769;DHT22;12064;50.890;5.424;2024-01-11T19:57:29;15.10;98.00
23769;DHT22;12064;50.890;5.424;2024-01-11T20:06:21;15.10;97.80
23769;DHT22;12064;50.890;5.424;2024-01-11T20:15:13;15.10;98.00
23769;DHT22;12064;50.890;5.424;2024-01-11T20:24:04;15.10;98.30
23769;DHT22;12064;50.890;5.424;2024-01-11T20:32:55;15.00;98.50
23769;DHT22;12064;50.890;5.424;2024-01-11T20:41:46;15.00;98.40
23769;DHT22;12064;50.890;5.424;2024-01-11T20:50:36;15.10;98.30
23769;DHT22;12064;50.890;5.424;2024-01-11T20:59:27;15.10;98.00
23769;DHT22;12064;50.890;5.424;2024-01-11T21:08:19;15.10;98.40
23769;DHT22;12064;50.890;5.424;2024-01-11T21:17:10;15.10;98.50
23769;DHT22;12064;50.890;5.424;2024-01-11T21:26:01;15.10;98.60
23769;DHT22;12064;50.890;5.424;2024-01-11T21:34:51;15.10;98.70
23769;DHT22;12064;50.890;5.424;2024-01-11T21:43:45;15.00;98.80
23769;DHT22;12064;50.890;5.424;2024-01-11T21:52:36;15.10;98.80
23769;DHT22;12064;50.890;5.424;2024-01-11T22:01:26;15.00;99.20
23769;DHT22;12064;50.890;5.424;2024-01-11T22:10:19;15.00;99.20
23769;DHT22;12064;50.890;5.424;2024-01-11T22:19:10;15.00;99.20
23769;DHT22;12064;50.890;5.424;2024-01-11T22:28:00;15.00;99.10
23769;DHT22;12064;50.890;5.424;2024-01-11T22:36:51;15.00;99.40
23769;DHT22;12064;50.890;5.424;2024-01-11T22:45:45;15.00;99.50
23769;DHT22;12064;50.890;5.424;2024-01-11T22:54:38;15.00;99.60
23769;DHT22;12064;50.890;5.424;2024-01-11T23:03:30;15.00;99.40
23769;DHT22;12064;50.890;5.424;2024-01-11T23:12:24;15.00;99.60
23769;DHT22;12064;50.890;5.424;2024-01-11T23:21:14;15.00;99.70
23769;DHT22;12064;50.890;5.424;2024-01-11T23:30:05;15.00;99.80
23769;DHT22;12064;50.890;5.424;2024-01-11T23:38:56;15.00;99.80
23769;DHT22;12064;50.890;5.424;2024-01-11T23:47:47;15.00;99.90
23769;DHT22;12064;50.890;5.424;2024-01-11T23:56:40;15.00;99.90
